FMEP/ZSE METAR and TAF weather

Enter ICAO airport designator
Station Type Date Time Source
FMEP METAR 2020/07/12 06:30 UTC NOAA

FMEP 120630Z AUTO VRB02KT CAVOK 25/17 Q1022 NOSIG


Station Type Date Time Source
FMEP Decoded METAR 2020/07/12 06:30 UTC NOAA

Saint-Pierre, Reunion (FMEP) 21-20S 055-29E 53M
Jul 12, 2020 - 02:30 AM EDT / 2020.07.12 0630 UTC
Wind: Variable at 2 MPH (2 KT):0
Visibility: greater than 7 mile(s):0
Temperature: 77 F (25 C)
Dew Point: 62 F (17 C)
Relative Humidity: 61%
Pressure (altimeter): 30.18 in. Hg (1022 hPa)
ob: FMEP 120630Z AUTO VRB02KT CAVOK 25/17 Q1022 NOSIG
cycle: 6

Station Type Date Time Source
FMEP TAF 2020/02/07 12:00 UTC NOAA

TAF FMEP 071100Z 0712/0721 11020KT 9999 FEW030
TEMPO 0712/0715 11020G30KT
BECMG 0715/0717 08008KT

Example: see airport list